Time;durP1;ratioP1;P1;durP2;ratioP2;P2;SDS_P1;SDS_P2;PMS_P1;PMS_P2;Temp;Humidity;BMP_temperature;BMP_pressure;BME280_temperature;BME280_humidity;BME280_pressure;Samples;Min_cycle;Max_cycle;Signal;HPM_P1;HPM_P2
2023/07/07 00:02:26;;;;;;;4.37;3.97;;;19.40;99.90;;;;;;6322898;28;20304;-61
2023/07/07 00:05:30;;;;;;;6.50;4.30;;;19.40;99.90;;;;;;6324144;28;20226;-61
2023/07/07 00:08:33;;;;;;;4.57;4.17;;;19.30;99.90;;;;;;6321109;28;20240;-62
2023/07/07 00:11:37;;;;;;;5.80;4.50;;;19.40;99.90;;;;;;6323853;28;20229;-61
2023/07/07 00:14:41;;;;;;;4.23;3.93;;;19.40;99.90;;;;;;6323737;28;20218;-61
2023/07/07 00:17:47;;;;;;;6.67;4.60;;;19.30;99.90;;;;;;6323627;28;20328;-61
2023/07/07 00:20:50;;;;;;;6.33;4.20;;;19.40;99.90;;;;;;6324231;28;20229;-61
2023/07/07 00:23:55;;;;;;;5.57;4.83;;;19.40;99.90;;;;;;6324480;28;20371;-61
2023/07/07 00:26:59;;;;;;;5.90;4.50;;;19.50;99.90;;;;;;6324364;28;20226;-61
2023/07/07 00:30:04;;;;;;;5.47;4.93;;;19.50;99.90;;;;;;6324479;28;20230;-61
2023/07/07 00:33:08;;;;;;;4.43;3.87;;;19.60;99.90;;;;;;6324511;28;20236;-61
2023/07/07 00:36:11;;;;;;;5.07;4.30;;;19.70;99.90;;;;;;6319758;28;20226;-62
2023/07/07 00:39:14;;;;;;;6.13;5.50;;;19.60;99.90;;;;;;6326451;28;20240;-62
2023/07/07 00:42:17;;;;;;;5.73;5.13;;;19.60;99.90;;;;;;6329348;28;20222;-61
2023/07/07 00:45:22;;;;;;;4.63;4.23;;;19.50;99.90;;;;;;6329414;28;20293;-61
2023/07/07 00:48:28;;;;;;;5.70;4.77;;;19.50;99.90;;;;;;6328819;28;20238;-61
2023/07/07 00:51:35;;;;;;;5.60;4.73;;;19.50;99.90;;;;;;6329086;28;20186;-61
2023/07/07 00:54:38;;;;;;;5.70;4.70;;;19.40;99.90;;;;;;6329274;28;20533;-61
2023/07/07 00:57:42;;;;;;;5.47;4.80;;;19.30;99.90;;;;;;6328898;28;20229;-61
2023/07/07 01:00:50;;;;;;;5.73;5.23;;;19.30;99.90;;;;;;6329761;28;20246;-61
2023/07/07 01:03:57;;;;;;;5.33;4.67;;;19.30;99.90;;;;;;6328936;28;20222;-61
2023/07/07 01:07:05;;;;;;;7.10;5.20;;;19.30;99.90;;;;;;6328402;28;20573;-61
2023/07/07 01:10:08;;;;;;;6.03;5.27;;;19.20;99.90;;;;;;6328531;28;20690;-61
2023/07/07 01:13:12;;;;;;;5.80;5.20;;;19.20;99.90;;;;;;6328648;28;20222;-61
2023/07/07 01:16:24;;;;;;;5.60;4.60;;;19.20;99.90;;;;;;6328583;28;20226;-61
2023/07/07 01:19:46;;;;;;;7.27;5.40;;;19.20;99.90;;;;;;6328312;28;20222;-61
2023/07/07 01:23:14;;;;;;;5.50;5.00;;;19.20;99.90;;;;;;6328148;28;20230;-61
2023/07/07 01:26:51;;;;;;;5.90;5.07;;;19.20;99.90;;;;;;6327979;28;20230;-61
2023/07/07 01:30:32;;;;;;;6.50;5.47;;;19.20;99.90;;;;;;6327522;28;20226;-61
2023/07/07 01:33:39;;;;;;;5.60;5.00;;;19.10;99.90;;;;;;6309851;28;20570;-62
2023/07/07 01:36:42;;;;;;;6.47;5.83;;;19.10;99.90;;;;;;6327764;28;21206;-62
2023/07/07 01:39:46;;;;;;;6.27;5.67;;;19.10;99.90;;;;;;6327943;28;20222;-61
2023/07/07 01:42:59;;;;;;;7.10;5.90;;;19.20;99.90;;;;;;6327692;28;20236;-61
2023/07/07 01:46:08;;;;;;;5.60;5.00;;;19.20;99.90;;;;;;6327523;28;20664;-61
2023/07/07 01:49:19;;;;;;;5.50;5.00;;;19.30;99.90;;;;;;6327616;28;20241;-61
2023/07/07 01:52:26;;;;;;;5.43;4.93;;;19.50;99.90;;;;;;6326634;28;20236;-61
2023/07/07 01:55:33;;;;;;;6.23;5.37;;;19.60;99.90;;;;;;6327603;28;20244;-61
2023/07/07 01:58:38;;;;;;;5.80;4.87;;;19.70;99.90;;;;;;6327384;28;20237;-61
2023/07/07 02:01:41;;;;;;;5.40;4.90;;;19.80;99.90;;;;;;6326777;28;20222;-61
2023/07/07 02:04:46;;;;;;;5.77;5.27;;;19.80;99.90;;;;;;6324002;28;20237;-61
2023/07/07 02:07:49;;;;;;;5.97;5.47;;;19.80;99.90;;;;;;6326332;28;20234;-61
2023/07/07 02:10:52;;;;;;;5.33;4.80;;;19.70;99.90;;;;;;6326060;28;20232;-61
2023/07/07 02:13:56;;;;;;;6.13;5.07;;;19.70;99.90;;;;;;6301894;28;20235;-61
2023/07/07 02:16:59;;;;;;;5.03;4.53;;;19.70;99.90;;;;;;6301795;28;20253;-61
2023/07/07 02:20:04;;;;;;;6.70;5.30;;;19.60;99.90;;;;;;6302012;28;20318;-61
2023/07/07 02:23:08;;;;;;;5.80;5.20;;;19.70;99.90;;;;;;6301282;28;20508;-61
2023/07/07 02:26:11;;;;;;;6.70;5.93;;;19.60;99.90;;;;;;6301002;28;20227;-61
2023/07/07 02:29:15;;;;;;;7.80;5.53;;;19.50;99.90;;;;;;6300814;28;20557;-61
2023/07/07 02:32:18;;;;;;;5.77;5.20;;;19.50;99.90;;;;;;6301291;28;20227;-62
2023/07/07 02:35:23;;;;;;;8.00;5.70;;;19.40;99.90;;;;;;6301367;28;20235;-61
2023/07/07 02:38:26;;;;;;;5.83;5.33;;;19.30;99.90;;;;;;6300983;28;20666;-61
2023/07/07 02:41:29;;;;;;;6.27;5.67;;;19.20;99.90;;;;;;6300622;28;20571;-61
2023/07/07 02:44:33;;;;;;;6.50;5.90;;;19.10;99.90;;;;;;6291851;28;20307;-61
2023/07/07 02:47:36;;;;;;;7.33;6.10;;;19.20;99.90;;;;;;6300926;28;20241;-61
2023/07/07 02:50:41;;;;;;;9.17;5.87;;;19.10;99.90;;;;;;6301164;28;20268;-61
2023/07/07 02:53:44;;;;;;;6.77;6.13;;;19.10;99.90;;;;;;6300250;28;20244;-61
2023/07/07 02:56:47;;;;;;;5.60;5.10;;;19.10;99.90;;;;;;6300391;28;20252;-61
2023/07/07 02:59:50;;;;;;;7.10;5.50;;;19.00;99.90;;;;;;6300284;28;20570;-62
2023/07/07 03:02:53;;;;;;;5.87;5.33;;;18.90;99.90;;;;;;6300206;28;20223;-61
2023/07/07 03:06:06;;;;;;;6.30;5.70;;;18.90;99.90;;;;;;6300454;28;20671;-61
2023/07/07 03:09:09;;;;;;;11.03;6.60;;;18.90;99.90;;;;;;6300527;28;20227;-61
2023/07/07 03:12:13;;;;;;;6.20;5.57;;;18.90;99.90;;;;;;6300601;28;20226;-61
2023/07/07 03:15:20;;;;;;;7.97;5.63;;;18.80;99.90;;;;;;6300366;28;20259;-61
2023/07/07 03:18:24;;;;;;;6.70;6.03;;;18.80;99.90;;;;;;6300602;28;20667;-62
2023/07/07 03:21:28;;;;;;;10.90;6.13;;;18.70;99.90;;;;;;6300774;28;20206;-61
2023/07/07 03:24:32;;;;;;;6.80;6.10;;;18.70;99.90;;;;;;6301064;28;20294;-61
2023/07/07 03:27:35;;;;;;;6.90;5.47;;;18.70;99.90;;;;;;6300300;28;21016;-61
2023/07/07 03:30:38;;;;;;;5.87;5.30;;;18.60;99.90;;;;;;6300295;28;20254;-61
2023/07/07 03:33:43;;;;;;;9.33;5.63;;;18.60;99.90;;;;;;6300040;28;20226;-61
2023/07/07 03:36:48;;;;;;;6.63;5.90;;;18.60;99.90;;;;;;6299988;28;20237;-61
2023/07/07 03:39:51;;;;;;;5.70;5.10;;;18.50;99.90;;;;;;6299787;28;20227;-61
2023/07/07 03:42:54;;;;;;;6.60;5.83;;;18.50;99.90;;;;;;6299601;28;20226;-61
2023/07/07 03:45:57;;;;;;;7.10;6.27;;;18.60;99.90;;;;;;6295118;28;20558;-61
2023/07/07 03:49:01;;;;;;;7.67;6.97;;;18.60;99.90;;;;;;6299488;28;20235;-61
2023/07/07 03:52:06;;;;;;;6.77;6.07;;;18.70;99.90;;;;;;6299363;28;20742;-61
2023/07/07 03:55:10;;;;;;;6.57;5.97;;;18.60;99.90;;;;;;6299412;28;20697;-61
2023/07/07 03:58:13;;;;;;;7.63;6.30;;;18.70;99.90;;;;;;6299920;28;20226;-61
2023/07/07 04:01:17;;;;;;;6.50;5.87;;;18.70;99.90;;;;;;6299466;28;20222;-61
2023/07/07 04:04:20;;;;;;;7.30;6.17;;;18.70;99.90;;;;;;6299458;28;20223;-62
2023/07/07 04:07:25;;;;;;;7.50;5.97;;;18.70;99.90;;;;;;6299619;28;20234;-61
2023/07/07 04:10:28;;;;;;;7.13;6.37;;;18.60;99.90;;;;;;6299539;28;20269;-61
2023/07/07 04:13:33;;;;;;;7.67;6.13;;;18.70;99.90;;;;;;6300320;28;20332;-61
2023/07/07 04:16:36;;;;;;;7.50;6.10;;;18.70;99.90;;;;;;6304925;28;20310;-60
2023/07/07 04:19:40;;;;;;;7.30;6.53;;;18.80;99.90;;;;;;6304731;28;20241;-60
2023/07/07 04:22:44;;;;;;;6.60;5.30;;;18.80;99.90;;;;;;6304678;28;20230;-62
2023/07/07 04:25:48;;;;;;;6.77;5.33;;;18.80;99.90;;;;;;6304401;28;20234;-62
2023/07/07 04:28:52;;;;;;;10.20;6.83;;;18.90;99.90;;;;;;6304414;28;20231;-63
2023/07/07 04:31:55;;;;;;;7.03;6.33;;;18.90;99.90;;;;;;6304198;28;20315;-62
2023/07/07 04:34:59;;;;;;;6.37;5.40;;;18.90;99.90;;;;;;6304162;28;20235;-62
2023/07/07 04:38:03;;;;;;;6.37;5.77;;;19.00;99.90;;;;;;6303938;28;20253;-61
2023/07/07 04:41:09;;;;;;;5.93;5.40;;;19.00;99.90;;;;;;6303548;28;20662;-61
2023/07/07 04:44:12;;;;;;;6.83;6.20;;;19.00;99.90;;;;;;6304651;28;20720;-61
2023/07/07 04:47:16;;;;;;;5.57;5.07;;;19.00;99.90;;;;;;6303819;28;20686;-61
2023/07/07 04:50:19;;;;;;;6.20;5.60;;;19.00;99.90;;;;;;6303851;28;20566;-61
2023/07/07 04:53:23;;;;;;;6.10;5.50;;;19.10;99.90;;;;;;6303494;28;20563;-61
2023/07/07 04:56:27;;;;;;;5.30;4.80;;;19.10;99.90;;;;;;6303585;28;20683;-61
2023/07/07 04:59:30;;;;;;;6.97;6.27;;;19.10;99.90;;;;;;6303781;28;20219;-61
2023/07/07 05:02:35;;;;;;;6.70;5.80;;;19.10;99.90;;;;;;6303876;28;20227;-61
2023/07/07 05:05:39;;;;;;;6.07;5.47;;;19.10;99.90;;;;;;6303993;28;20306;-61
2023/07/07 05:08:44;;;;;;;6.20;5.60;;;19.20;99.90;;;;;;6302953;28;20234;-61
2023/07/07 05:11:47;;;;;;;7.00;5.30;;;19.20;99.90;;;;;;6303422;28;20669;-61
2023/07/07 05:14:52;;;;;;;6.00;5.30;;;19.30;99.90;;;;;;6303148;28;20237;-61
2023/07/07 05:17:56;;;;;;;6.80;6.20;;;19.20;99.90;;;;;;6303102;28;20242;-62
2023/07/07 05:21:03;;;;;;;5.17;4.77;;;19.20;99.90;;;;;;6303543;28;20237;-61
2023/07/07 05:24:10;;;;;;;5.73;5.23;;;19.20;99.90;;;;;;6303095;28;20227;-60
2023/07/07 05:27:14;;;;;;;6.23;5.27;;;19.10;99.90;;;;;;6302900;28;20586;-61
2023/07/07 05:30:18;;;;;;;7.80;5.93;;;19.20;99.90;;;;;;6303623;28;20262;-61
2023/07/07 05:33:22;;;;;;;5.90;5.37;;;19.20;99.90;;;;;;6303157;28;20223;-61
2023/07/07 05:36:25;;;;;;;6.57;5.80;;;19.30;99.90;;;;;;6302465;28;20202;-61
2023/07/07 05:39:30;;;;;;;6.40;5.80;;;19.40;99.90;;;;;;6302589;28;20655;-61
2023/07/07 05:42:34;;;;;;;6.37;5.77;;;19.40;99.90;;;;;;6302541;28;20202;-61
2023/07/07 05:45:37;;;;;;;8.60;6.53;;;19.40;99.90;;;;;;6302798;28;20507;-61
2023/07/07 05:48:41;;;;;;;7.50;6.53;;;19.40;99.90;;;;;;6302389;28;20227;-61
2023/07/07 05:51:44;;;;;;;9.77;5.20;;;19.40;99.90;;;;;;6302441;28;20227;-61
2023/07/07 05:54:50;;;;;;;6.83;5.60;;;19.40;99.90;;;;;;6292951;28;20525;-61
2023/07/07 05:57:54;;;;;;;7.63;5.83;;;19.50;99.90;;;;;;6302382;28;20230;-61
2023/07/07 06:00:57;;;;;;;7.13;5.60;;;19.50;99.90;;;;;;6303989;28;20238;-61
2023/07/07 06:04:01;;;;;;;6.03;5.43;;;19.50;99.90;;;;;;6302508;28;20227;-62
2023/07/07 06:07:04;;;;;;;6.20;5.60;;;19.50;99.90;;;;;;6302636;28;20234;-61
2023/07/07 06:10:11;;;;;;;7.50;5.63;;;19.60;99.90;;;;;;6302231;28;20244;-62
2023/07/07 06:13:16;;;;;;;6.83;5.63;;;19.70;99.90;;;;;;6302531;28;20218;-63
2023/07/07 06:16:20;;;;;;;8.73;5.77;;;19.80;99.90;;;;;;6302474;28;20249;-63
2023/07/07 06:19:23;;;;;;;5.30;4.90;;;19.90;99.90;;;;;;6302227;28;20243;-62
2023/07/07 06:22:27;;;;;;;6.57;5.90;;;20.00;99.90;;;;;;6302217;28;20222;-60
2023/07/07 06:25:31;;;;;;;5.20;4.70;;;20.00;99.90;;;;;;6302131;28;20234;-61
2023/07/07 06:28:35;;;;;;;6.83;5.97;;;20.10;99.90;;;;;;6301962;28;20237;-62
2023/07/07 06:31:38;;;;;;;4.90;4.43;;;20.30;99.90;;;;;;6301130;28;20242;-61
2023/07/07 06:34:41;;;;;;;8.23;5.53;;;20.40;99.90;;;;;;6301672;28;20226;-61
2023/07/07 06:37:44;;;;;;;7.00;5.77;;;20.30;99.90;;;;;;6301104;28;20253;-60
2023/07/07 06:40:49;;;;;;;5.50;5.00;;;20.50;99.90;;;;;;6301130;28;20309;-60
2023/07/07 06:43:53;;;;;;;7.60;5.80;;;20.60;99.90;;;;;;6301239;28;20223;-60
2023/07/07 06:46:56;;;;;;;7.73;5.20;;;20.70;99.90;;;;;;6300789;28;20346;-60
2023/07/07 06:49:59;;;;;;;7.13;5.87;;;20.70;99.90;;;;;;6301012;28;20246;-60
2023/07/07 06:53:02;;;;;;;4.80;4.40;;;20.90;99.90;;;;;;6318972;28;20642;-60
2023/07/07 06:56:07;;;;;;;7.10;5.13;;;20.90;99.90;;;;;;6326178;28;20210;-61
2023/07/07 06:59:10;;;;;;;5.87;5.37;;;20.90;99.90;;;;;;6325721;28;20222;-61
2023/07/07 07:02:14;;;;;;;5.57;5.03;;;21.10;99.90;;;;;;6325059;28;20225;-61
2023/07/07 07:05:17;;;;;;;5.77;5.27;;;21.20;99.90;;;;;;6320313;28;20226;-63
2023/07/07 07:08:20;;;;;;;6.57;6.00;;;21.40;99.90;;;;;;6325430;28;20233;-64
2023/07/07 07:11:25;;;;;;;7.03;6.13;;;21.50;99.90;;;;;;6325738;28;20224;-64
2023/07/07 07:14:28;;;;;;;6.47;5.73;;;21.60;99.90;;;;;;6324806;28;20554;-64
2023/07/07 07:17:31;;;;;;;6.27;5.67;;;21.80;99.90;;;;;;6324476;28;20629;-64
2023/07/07 07:20:38;;;;;;;6.60;5.43;;;21.90;99.90;;;;;;6324663;28;20214;-64
2023/07/07 07:23:41;;;;;;;6.50;5.90;;;22.10;99.90;;;;;;6324714;28;20237;-64
2023/07/07 07:26:46;;;;;;;7.03;5.70;;;22.30;99.90;;;;;;6324702;28;20224;-64
2023/07/07 07:29:51;;;;;;;8.93;6.50;;;22.50;99.90;;;;;;6324676;28;20222;-64
2023/07/07 07:32:55;;;;;;;8.77;5.80;;;22.60;99.90;;;;;;6324285;28;20218;-64
2023/07/07 07:35:58;;;;;;;6.70;5.20;;;22.70;99.90;;;;;;6324750;28;20229;-64
2023/07/07 07:39:01;;;;;;;9.57;6.23;;;22.90;99.90;;;;;;6324047;28;20240;-65
2023/07/07 07:42:07;;;;;;;7.13;6.40;;;23.00;99.90;;;;;;6321841;28;20226;-64
2023/07/07 07:45:17;;;;;;;7.87;7.20;;;23.20;99.90;;;;;;6322398;28;20305;-64
2023/07/07 07:48:20;;;;;;;11.50;6.97;;;23.20;99.90;;;;;;6314998;28;20561;-65
2023/07/07 08:24:11;;;;;;;4.97;4.47;;;23.10;99.90;;;;;;6301424;28;20699;-65
2023/07/07 08:27:16;;;;;;;6.33;5.73;;;24.90;99.40;;;;;;6246160;28;20227;-64
2023/07/07 08:30:22;;;;;;;6.53;4.97;;;25.00;97.80;;;;;;6232291;28;20223;-63
2023/07/07 08:33:25;;;;;;;5.80;5.20;;;25.00;98.00;;;;;;6245665;28;20255;-66
2023/07/07 08:36:29;;;;;;;6.53;5.70;;;25.30;97.40;;;;;;6246505;28;20227;-66
2023/07/07 08:39:34;;;;;;;9.67;5.43;;;25.60;96.60;;;;;;6231223;28;20236;-65
2023/07/07 08:42:39;;;;;;;6.07;5.47;;;25.70;96.30;;;;;;6246310;28;20306;-65
2023/07/07 08:45:52;;;;;;;9.63;5.90;;;26.00;95.30;;;;;;6234743;28;20228;-65
2023/07/07 08:49:01;;;;;;;5.63;4.97;;;26.20;95.20;;;;;;6221333;28;20228;-65
2023/07/07 08:52:14;;;;;;;6.83;6.07;;;26.40;95.00;;;;;;6236857;28;20224;-65
2023/07/07 08:55:44;;;;;;;6.37;5.67;;;26.50;93.90;;;;;;6245778;28;20319;-66
2023/07/07 08:58:58;;;;;;;5.83;5.23;;;26.40;94.30;;;;;;6246574;28;20366;-66
2023/07/07 09:02:13;;;;;;;5.73;4.63;;;26.50;93.90;;;;;;6246113;28;20228;-64
2023/07/07 09:05:27;;;;;;;7.70;6.00;;;26.50;92.90;;;;;;6230715;28;20225;-65
2023/07/07 09:08:38;;;;;;;5.77;5.27;;;26.70;92.10;;;;;;6236142;28;20213;-63
2023/07/07 09:12:19;;;;;;;4.80;4.30;;;26.60;90.60;;;;;;6242686;28;20240;-65
2023/07/07 09:15:26;;;;;;;5.27;4.20;;;26.80;90.60;;;;;;6257170;28;20589;-66
2023/07/07 09:18:36;;;;;;;7.17;5.17;;;27.00;90.30;;;;;;6267275;28;20246;-65
2023/07/07 09:21:44;;;;;;;6.03;5.00;;;27.20;90.10;;;;;;6268394;28;20227;-65
2023/07/07 09:24:53;;;;;;;5.90;4.90;;;27.40;88.00;;;;;;6255294;28;20359;-65
2023/07/07 09:28:02;;;;;;;3.97;3.67;;;27.50;85.60;;;;;;6252448;28;20249;-65
2023/07/07 09:31:24;;;;;;;5.00;4.50;;;27.50;83.60;;;;;;6252956;28;20230;-65
2023/07/07 09:34:27;;;;;;;5.17;4.60;;;27.40;81.80;;;;;;6253610;28;20670;-64
2023/07/07 09:37:40;;;;;;;4.80;4.37;;;27.50;78.80;;;;;;6252408;28;20683;-64
2023/07/07 09:40:51;;;;;;;5.97;5.10;;;27.30;79.10;;;;;;6240497;28;20299;-64
2023/07/07 09:44:12;;;;;;;5.60;4.30;;;27.50;79.70;;;;;;6207736;28;20240;-64
2023/07/07 09:47:22;;;;;;;5.33;4.77;;;27.50;77.70;;;;;;6203709;28;20681;-63
2023/07/07 09:50:30;;;;;;;6.30;4.37;;;27.50;77.50;;;;;;6230385;28;20208;-64
2023/07/07 09:53:36;;;;;;;4.63;3.83;;;27.20;78.70;;;;;;6226375;28;20232;-64
2023/07/07 09:56:55;;;;;;;5.67;4.47;;;27.20;79.50;;;;;;6229148;28;20232;-64
2023/07/07 10:00:02;;;;;;;4.00;3.70;;;27.10;79.80;;;;;;6228279;28;20234;-64
2023/07/07 10:03:17;;;;;;;4.57;4.13;;;26.80;79.20;;;;;;6222218;28;20229;-64
2023/07/07 10:06:28;;;;;;;4.67;4.13;;;26.50;78.90;;;;;;6217380;28;20311;-64
2023/07/07 10:09:31;;;;;;;5.80;3.67;;;26.50;78.80;;;;;;6229089;28;20224;-64
2023/07/07 10:12:35;;;;;;;4.37;3.97;;;26.50;78.90;;;;;;6228195;28;20232;-64
2023/07/07 10:16:01;;;;;;;5.50;4.00;;;26.50;80.30;;;;;;6228935;28;20578;-64
2023/07/07 10:19:09;;;;;;;6.83;4.60;;;26.10;82.10;;;;;;6229120;28;20236;-64
2023/07/07 10:22:15;;;;;;;5.23;4.50;;;26.20;82.90;;;;;;6229157;28;20589;-64
2023/07/07 10:25:20;;;;;;;4.33;3.90;;;26.30;84.00;;;;;;6229463;28;20576;-64
2023/07/07 10:28:25;;;;;;;5.40;3.77;;;26.40;84.10;;;;;;6228885;28;20232;-64
2023/07/07 10:31:29;;;;;;;4.47;4.07;;;26.70;83.90;;;;;;6228344;28;20224;-64
2023/07/07 10:34:36;;;;;;;5.20;4.20;;;27.10;84.40;;;;;;6227459;28;20247;-64
2023/07/07 10:37:39;;;;;;;4.30;3.90;;;27.10;85.40;;;;;;6228471;28;20232;-64
2023/07/07 10:40:45;;;;;;;3.97;3.47;;;27.10;85.10;;;;;;6228228;28;20227;-65
2023/07/07 10:43:48;;;;;;;5.60;4.43;;;27.30;84.40;;;;;;6228443;28;20574;-66
2023/07/07 10:46:52;;;;;;;4.70;4.10;;;27.20;83.30;;;;;;6228533;28;20243;-64
2023/07/07 10:49:57;;;;;;;6.27;3.60;;;27.30;83.10;;;;;;6227725;28;20391;-64
2023/07/07 10:53:26;;;;;;;4.67;3.97;;;27.60;83.80;;;;;;6227431;28;20575;-64
2023/07/07 10:56:32;;;;;;;4.50;4.10;;;27.90;84.30;;;;;;6228344;28;20238;-64
2023/07/07 10:59:58;;;;;;;4.47;3.77;;;28.40;82.60;;;;;;6227438;28;20529;-63
2023/07/07 11:03:22;;;;;;;4.20;3.80;;;28.30;82.00;;;;;;6227425;28;20580;-65
2023/07/07 11:06:36;;;;;;;5.00;3.80;;;28.50;82.60;;;;;;6227399;28;20243;-64
2023/07/07 11:10:01;;;;;;;4.90;4.27;;;28.70;81.10;;;;;;6226967;28;20233;-65
2023/07/07 11:13:15;;;;;;;5.40;4.30;;;28.70;81.40;;;;;;6226558;28;20228;-64
2023/07/07 11:16:25;;;;;;;5.17;4.20;;;28.80;80.20;;;;;;6250974;28;20685;-65
2023/07/07 11:19:50;;;;;;;5.00;4.53;;;28.80;80.50;;;;;;6251637;28;20338;-65
2023/07/07 11:23:19;;;;;;;4.90;4.30;;;28.70;80.80;;;;;;6234142;28;20291;-64
2023/07/07 11:26:33;;;;;;;5.23;4.50;;;28.40;81.40;;;;;;6219139;28;20231;-65
2023/07/07 11:29:47;;;;;;;5.53;4.93;;;28.30;81.90;;;;;;6225498;28;20229;-64
2023/07/07 11:33:01;;;;;;;5.10;4.60;;;28.30;81.60;;;;;;6225802;28;20334;-63
2023/07/07 11:36:29;;;;;;;7.00;5.23;;;28.20;80.20;;;;;;6226009;28;20289;-64
2023/07/07 11:39:48;;;;;;;5.53;5.03;;;28.30;81.20;;;;;;6225762;28;20228;-65
2023/07/07 11:43:08;;;;;;;8.73;4.90;;;28.20;80.20;;;;;;6223108;28;20251;-64
2023/07/07 11:46:36;;;;;;;5.00;4.50;;;27.70;80.60;;;;;;6223722;28;20240;-64
2023/07/07 11:50:03;;;;;;;6.23;5.10;;;27.50;80.10;;;;;;6224237;28;20708;-64
2023/07/07 11:53:42;;;;;;;5.50;5.00;;;27.10;80.10;;;;;;6223449;28;20229;-63
2023/07/07 11:57:30;;;;;;;5.17;4.67;;;27.40;78.60;;;;;;6225060;28;20220;-63
2023/07/07 12:00:47;;;;;;;6.73;5.10;;;27.70;78.10;;;;;;6162448;28;20244;-63
2023/07/07 12:03:56;;;;;;;5.57;5.07;;;27.50;78.20;;;;;;6165781;28;20341;-66
2023/07/07 12:07:03;;;;;;;5.57;5.00;;;27.40;78.30;;;;;;6225429;28;20310;-65
2023/07/07 12:10:14;;;;;;;5.53;5.03;;;27.30;78.00;;;;;;6225812;28;20250;-64
2023/07/07 12:13:24;;;;;;;5.50;4.90;;;27.20;77.10;;;;;;6225229;28;20229;-64
2023/07/07 12:16:30;;;;;;;5.20;4.70;;;26.80;77.30;;;;;;6217908;28;20575;-65
2023/07/07 12:19:39;;;;;;;4.93;4.47;;;27.00;76.80;;;;;;6225382;28;20559;-63
2023/07/07 12:22:43;;;;;;;5.97;5.40;;;27.10;75.90;;;;;;6225268;28;20343;-63
2023/07/07 12:25:47;;;;;;;6.30;5.20;;;27.30;73.70;;;;;;6237743;28;20230;-63
2023/07/07 12:29:04;;;;;;;5.47;4.93;;;27.30;72.80;;;;;;6249712;28;20694;-64
2023/07/07 12:32:09;;;;;;;5.20;4.70;;;27.30;72.70;;;;;;6248612;28;20232;-65
2023/07/07 12:35:16;;;;;;;5.23;4.67;;;27.30;70.70;;;;;;6248297;28;20231;-64
2023/07/07 12:38:26;;;;;;;5.13;4.63;;;27.30;71.40;;;;;;6248469;28;20688;-64
2023/07/07 12:41:31;;;;;;;4.63;4.23;;;27.40;72.00;;;;;;6248758;28;20212;-64
2023/07/07 12:44:34;;;;;;;5.33;4.40;;;27.30;69.90;;;;;;6248082;28;20220;-65
2023/07/07 12:47:41;;;;;;;7.70;4.93;;;27.20;69.80;;;;;;6247973;28;20199;-64
2023/07/07 12:50:44;;;;;;;4.50;4.10;;;27.30;70.20;;;;;;6247682;28;20285;-64
2023/07/07 12:53:49;;;;;;;4.63;4.23;;;27.30;69.80;;;;;;6248418;28;20235;-65
2023/07/07 12:57:02;;;;;;;4.87;4.47;;;27.40;68.00;;;;;;6249423;28;20228;-65
2023/07/07 13:00:28;;;;;;;5.93;5.40;;;27.60;67.10;;;;;;6253490;28;20232;-65
2023/07/07 13:03:31;;;;;;;5.90;5.17;;;27.80;65.50;;;;;;6255523;28;20246;-64
2023/07/07 13:06:36;;;;;;;6.10;4.50;;;27.80;60.70;;;;;;6256452;28;20311;-64
2023/07/07 13:09:46;;;;;;;4.67;4.27;;;28.10;64.00;;;;;;6254020;28;20224;-64
2023/07/07 13:12:51;;;;;;;7.73;5.10;;;28.20;63.40;;;;;;6253772;28;20243;-64
2023/07/07 13:15:55;;;;;;;5.70;4.60;;;28.20;62.30;;;;;;6233213;28;20239;-64
2023/07/07 13:18:59;;;;;;;5.63;4.70;;;27.90;62.60;;;;;;6229547;28;20232;-64
2023/07/07 13:22:10;;;;;;;5.30;4.80;;;27.90;59.80;;;;;;6229232;28;20248;-63
2023/07/07 13:25:21;;;;;;;4.93;4.47;;;27.80;59.70;;;;;;6236875;28;20219;-64
2023/07/07 13:28:26;;;;;;;5.67;5.00;;;27.60;60.70;;;;;;6253967;28;20247;-65
2023/07/07 13:31:29;;;;;;;4.90;4.50;;;27.50;61.80;;;;;;6253209;28;20573;-64
2023/07/07 13:34:33;;;;;;;7.30;4.97;;;27.30;60.00;;;;;;6253083;28;20313;-65
2023/07/07 13:37:37;;;;;;;5.53;5.03;;;27.30;61.40;;;;;;6253278;28;20230;-64
2023/07/07 13:40:40;;;;;;;6.03;4.50;;;27.30;60.00;;;;;;6252797;28;20246;-63
2023/07/07 13:43:46;;;;;;;5.20;4.70;;;27.40;60.70;;;;;;6252798;28;20228;-65
2023/07/07 13:46:50;;;;;;;4.87;4.37;;;27.40;60.20;;;;;;6253207;28;20235;-64
2023/07/07 13:49:57;;;;;;;6.47;4.17;;;27.40;60.10;;;;;;6252936;28;20297;-64
2023/07/07 13:53:05;;;;;;;4.70;4.27;;;27.50;59.90;;;;;;6252625;28;20235;-63
2023/07/07 13:56:09;;;;;;;5.43;4.90;;;27.30;60.50;;;;;;6252987;28;20248;-63
2023/07/07 13:59:17;;;;;;;4.90;4.50;;;27.10;59.40;;;;;;6253581;28;20242;-64
2023/07/07 14:02:22;;;;;;;6.37;4.57;;;27.10;59.90;;;;;;6253133;28;20238;-63
2023/07/07 14:05:28;;;;;;;5.40;4.90;;;27.10;60.60;;;;;;6253521;28;20220;-63
2023/07/07 14:08:34;;;;;;;7.50;5.20;;;27.00;61.00;;;;;;6253462;28;20222;-64
2023/07/07 14:11:37;;;;;;;5.30;4.80;;;27.10;60.60;;;;;;6253617;28;20203;-64
2023/07/07 14:14:44;;;;;;;5.03;4.53;;;27.10;59.30;;;;;;6242066;28;20224;-64
2023/07/07 14:17:47;;;;;;;5.80;4.33;;;27.30;60.40;;;;;;6229196;28;20239;-64
2023/07/07 14:20:55;;;;;;;5.53;4.83;;;27.20;60.00;;;;;;6229140;28;20521;-64
2023/07/07 14:23:59;;;;;;;5.60;4.63;;;27.30;59.60;;;;;;6227508;28;20678;-64
2023/07/07 14:27:02;;;;;;;5.37;4.93;;;27.40;60.40;;;;;;6250596;28;20231;-64
2023/07/07 14:30:17;;;;;;;5.67;5.17;;;27.40;60.40;;;;;;6252446;28;20224;-64
2023/07/07 14:33:23;;;;;;;6.30;5.47;;;27.60;60.50;;;;;;6251125;28;20240;-65
2023/07/07 14:36:29;;;;;;;5.93;5.23;;;27.60;60.00;;;;;;6254453;28;20227;-64
2023/07/07 14:39:37;;;;;;;6.47;5.13;;;27.50;59.20;;;;;;6256987;28;20236;-65
2023/07/07 14:42:49;;;;;;;5.50;5.00;;;27.40;59.50;;;;;;6262120;28;20314;-64
2023/07/07 14:45:58;;;;;;;5.23;4.40;;;27.20;59.50;;;;;;6250553;28;20228;-66
2023/07/07 14:49:14;;;;;;;6.33;4.83;;;27.30;60.00;;;;;;6253560;28;20241;-65
2023/07/07 14:52:37;;;;;;;6.80;4.67;;;27.40;60.80;;;;;;6249663;28;20231;-64
2023/07/07 14:55:48;;;;;;;5.67;5.17;;;27.40;60.40;;;;;;6249304;28;20238;-64
2023/07/07 14:58:57;;;;;;;5.20;4.70;;;27.50;61.70;;;;;;6250360;28;20238;-65
2023/07/07 15:02:16;;;;;;;4.73;4.33;;;27.50;61.30;;;;;;6250628;28;20243;-65
2023/07/07 15:05:26;;;;;;;5.63;5.03;;;27.50;61.00;;;;;;6251522;28;20653;-65
2023/07/07 15:08:30;;;;;;;6.27;5.40;;;27.50;59.70;;;;;;6251014;28;20366;-64
2023/07/07 15:11:34;;;;;;;5.87;5.07;;;27.50;60.00;;;;;;6251325;28;20234;-65
2023/07/07 15:14:38;;;;;;;5.53;4.80;;;27.50;59.70;;;;;;6250615;28;20228;-65
2023/07/07 15:17:43;;;;;;;5.20;4.70;;;27.60;59.80;;;;;;6250605;28;20207;-65
2023/07/07 15:20:47;;;;;;;5.73;5.13;;;27.60;59.10;;;;;;6250928;28;20230;-64
2023/07/07 15:23:50;;;;;;;6.83;5.40;;;27.70;58.80;;;;;;6250749;28;20616;-65
2023/07/07 15:26:53;;;;;;;6.40;5.83;;;27.80;59.20;;;;;;6251634;28;20238;-64
2023/07/07 15:29:57;;;;;;;5.13;4.63;;;27.80;59.60;;;;;;6251264;28;20242;-64
2023/07/07 15:33:01;;;;;;;5.80;5.30;;;27.80;60.40;;;;;;6250777;28;20238;-64
2023/07/07 15:36:05;;;;;;;5.17;4.67;;;27.80;60.50;;;;;;6250721;28;20259;-64
2023/07/07 15:39:13;;;;;;;6.10;5.40;;;27.90;60.90;;;;;;6250356;28;20242;-64
2023/07/07 15:42:16;;;;;;;5.17;4.67;;;28.00;59.80;;;;;;6250717;28;20238;-64
2023/07/07 15:45:19;;;;;;;6.33;5.17;;;28.00;59.40;;;;;;6250829;28;20223;-66
2023/07/07 15:48:24;;;;;;;6.80;5.00;;;27.90;58.90;;;;;;6250474;28;20231;-66
2023/07/07 15:51:31;;;;;;;5.77;5.27;;;27.90;59.40;;;;;;6250760;28;20306;-65
2023/07/07 15:54:34;;;;;;;5.63;4.90;;;27.90;59.60;;;;;;6250160;28;20612;-65
2023/07/07 15:57:38;;;;;;;6.50;5.30;;;28.00;59.20;;;;;;6250564;28;20227;-65
2023/07/07 16:00:42;;;;;;;7.10;5.43;;;27.90;60.30;;;;;;6250695;28;20242;-66
2023/07/07 16:03:47;;;;;;;5.90;5.30;;;27.90;59.40;;;;;;6250209;28;20241;-64
2023/07/07 16:06:54;;;;;;;6.20;5.60;;;27.90;59.80;;;;;;6250038;28;20531;-64
2023/07/07 16:09:57;;;;;;;7.30;5.37;;;27.90;58.90;;;;;;6250061;28;20231;-64
2023/07/07 16:13:00;;;;;;;5.70;5.20;;;27.90;59.00;;;;;;6249279;28;20278;-63
2023/07/07 16:16:04;;;;;;;5.70;5.20;;;27.90;58.90;;;;;;6249695;28;20373;-64
2023/07/07 16:19:13;;;;;;;5.80;4.23;;;27.90;58.70;;;;;;6249428;28;20552;-64
2023/07/07 16:22:17;;;;;;;6.00;5.40;;;27.80;58.60;;;;;;6249549;28;20236;-63
2023/07/07 16:25:22;;;;;;;5.10;4.60;;;27.80;58.70;;;;;;6249873;28;20220;-63
2023/07/07 16:28:25;;;;;;;5.87;4.77;;;27.80;59.10;;;;;;6249365;28;20292;-63
2023/07/07 16:31:30;;;;;;;5.53;4.63;;;27.70;58.60;;;;;;6249330;28;20265;-64
2023/07/07 16:34:34;;;;;;;5.70;5.20;;;27.50;59.50;;;;;;6252185;28;20247;-65
2023/07/07 16:37:39;;;;;;;5.80;5.20;;;27.40;59.50;;;;;;6254729;28;20537;-64
2023/07/07 16:40:45;;;;;;;8.53;5.27;;;27.10;60.50;;;;;;6254502;28;20223;-66
2023/07/07 16:43:49;;;;;;;6.13;5.33;;;27.10;60.50;;;;;;6254535;28;20314;-64
2023/07/07 16:46:52;;;;;;;5.40;4.90;;;27.10;60.40;;;;;;6254872;28;20233;-66